Terminal Aerodrome Forecast
Issued by NWS Grand Forks, ND

Home | Current Version | Previous Version | Text Only | Print | Product List | Glossary Off
Versions: 1 2 3 4 5 6 7 8 9 10 11 12 13 14 15 16 17 18 19 20 21 22 23 24 25

161
FTUS43 KFGF 241547 AAB
TAFGFK
TAF AMD
KGFK 241547Z 2416/2512 08013KT P6SM -RA OVC035
      TEMPO 2416/2418 BKN012
     FM242000 04008KT P6SM OVC008
     FM242200 35014KT P6SM OVC008
     FM250000 34015G24KT P6SM OVC003
     FM250800 35015G23KT P6SM OVC008=

USA.gov is the U.S. government's official web portal to all federal, state and local government web resources and services.